createdAt,value
2023-03-04T00:00:06.477Z,98869.25
2023-03-04T00:02:32.995Z,98865.56
2023-03-04T00:04:59.489Z,98861.19
2023-03-04T00:07:26.057Z,98864.91
2023-03-04T00:09:52.575Z,98863.47
2023-03-04T00:12:19.118Z,98862.47
2023-03-04T00:14:45.677Z,98869.16
2023-03-04T00:17:12.213Z,98865.03
2023-03-04T00:19:38.821Z,98864.94
2023-03-04T00:22:05.369Z,98861.47
2023-03-04T00:24:32.387Z,98864.00
2023-03-04T00:26:59.025Z,98868.31
2023-03-04T00:29:25.664Z,98867.22
2023-03-04T00:37:03.684Z,98862.22
2023-03-04T00:39:30.215Z,98864.19
2023-03-04T00:41:56.691Z,98856.53
2023-03-04T00:44:23.212Z,98871.44
2023-03-04T00:46:49.735Z,98860.56
2023-03-04T00:49:16.252Z,98866.59
2023-03-04T00:51:42.859Z,98867.50
2023-03-04T00:54:09.525Z,98861.94
2023-03-04T00:56:36.113Z,98869.78
2023-03-04T00:59:02.724Z,98865.00
2023-03-04T01:01:29.423Z,98871.09
2023-03-04T01:03:56.152Z,98865.50
2023-03-04T01:06:22.708Z,98856.59
2023-03-04T01:08:49.264Z,98855.38
2023-03-04T01:11:15.853Z,98853.72
2023-03-04T01:13:42.458Z,98852.19
2023-03-04T01:18:47.885Z,98849.78
2023-03-04T01:21:14.926Z,98846.66
2023-03-04T01:23:41.576Z,98865.28
2023-03-04T01:26:08.134Z,98850.91
2023-03-04T01:28:36.017Z,98850.91
2023-03-04T01:31:05.985Z,98844.34
2023-03-04T01:33:32.551Z,98848.69
2023-03-04T01:35:59.279Z,98852.41
2023-03-04T01:38:25.946Z,98842.47
2023-03-04T01:40:52.796Z,98848.88
2023-03-04T01:43:23.480Z,98837.81
2023-03-04T01:45:51.609Z,98840.09
2023-03-04T01:48:22.119Z,98839.63
2023-03-04T01:50:49.077Z,98842.53
2023-03-04T01:53:23.180Z,98843.19
2023-03-04T01:55:52.033Z,98848.56
2023-03-04T01:58:18.722Z,98853.16
2023-03-04T02:00:45.391Z,98848.94
2023-03-04T02:05:50.118Z,98846.06
2023-03-04T02:13:30.044Z,98841.81
2023-03-04T02:15:56.715Z,98834.31
2023-03-04T02:18:24.376Z,98842.91
2023-03-04T02:21:15.444Z,98837.88
2023-03-04T02:24:05.754Z,98836.03
2023-03-04T02:26:33.139Z,98837.88
2023-03-04T02:29:00.242Z,98833.88
2023-03-04T02:31:30.262Z,98829.44
2023-03-04T02:34:00.445Z,98840.97
2023-03-04T02:36:28.416Z,98830.31
2023-03-04T02:38:56.470Z,98826.97
2023-03-04T02:41:26.350Z,98833.50
2023-03-04T02:43:55.165Z,98836.03
2023-03-04T02:46:21.754Z,98833.06
2023-03-04T02:48:49.832Z,98843.16
2023-03-04T02:51:16.432Z,98844.63
2023-03-04T02:53:43.212Z,98842.25
2023-03-04T02:56:09.714Z,98843.78
2023-03-04T02:58:36.338Z,98841.16
2023-03-04T03:01:03.081Z,98833.31
2023-03-04T03:03:29.756Z,98847.31
2023-03-04T03:05:56.365Z,98847.63
2023-03-04T03:08:23.117Z,98842.53
2023-03-04T03:10:49.770Z,98854.81
2023-03-04T03:13:16.289Z,98851.09
2023-03-04T03:15:43.085Z,98846.84
2023-03-04T03:18:11.017Z,98849.44
2023-03-04T03:20:38.038Z,98852.47
2023-03-04T03:23:05.139Z,98855.75
2023-03-04T03:25:31.723Z,98850.38
2023-03-04T03:27:58.292Z,98841.78
2023-03-04T03:30:24.795Z,98842.31
2023-03-04T03:32:51.422Z,98843.97
2023-03-04T03:35:18.127Z,98840.41
2023-03-04T03:37:44.728Z,98837.22
2023-03-04T03:40:12.076Z,98839.09
2023-03-04T03:42:38.610Z,98843.09
2023-03-04T03:45:05.601Z,98833.22
2023-03-04T03:47:32.443Z,98831.94
2023-03-04T03:49:59.069Z,98838.09
2023-03-04T03:52:25.607Z,98835.94
2023-03-04T03:54:52.247Z,98836.00
2023-03-04T03:57:18.959Z,98831.16
2023-03-04T03:59:45.703Z,98834.88
2023-03-04T04:02:12.377Z,98839.47
2023-03-04T04:04:39.057Z,98842.47
2023-03-04T04:07:05.705Z,98837.72
2023-03-04T04:09:32.272Z,98845.16
2023-03-04T04:11:58.819Z,98845.06
2023-03-04T04:14:25.348Z,98847.84
2023-03-04T04:16:52.061Z,98842.47
2023-03-04T04:19:20.445Z,98846.69
2023-03-04T04:21:47.570Z,98841.16
2023-03-04T04:24:14.197Z,98848.38
2023-03-04T04:26:41.133Z,98843.56
2023-03-04T04:29:09.157Z,98846.69
2023-03-04T04:31:36.338Z,98850.75
2023-03-04T04:34:02.948Z,98851.28
2023-03-04T04:36:29.605Z,98853.22
2023-03-04T04:38:56.145Z,98859.59
2023-03-04T04:41:26.356Z,98849.38
2023-03-04T04:43:53.106Z,98847.28
2023-03-04T04:46:20.335Z,98850.75
2023-03-04T04:48:47.345Z,98850.84
2023-03-04T04:51:13.867Z,98861.31
2023-03-04T04:53:40.764Z,98855.72
2023-03-04T04:56:20.262Z,98842.59
2023-03-04T05:01:19.944Z,98845.84
2023-03-04T05:03:46.826Z,98849.63
2023-03-04T05:08:47.212Z,98853.44
2023-03-04T05:11:14.198Z,98855.91
2023-03-04T05:13:40.907Z,98864.47
2023-03-04T05:18:45.933Z,98859.88
2023-03-04T05:21:12.699Z,98869.69
2023-03-04T05:23:42.360Z,98868.56
2023-03-04T05:26:13.977Z,98865.13
2023-03-04T05:31:18.176Z,98869.91
2023-03-04T05:33:44.728Z,98876.06
2023-03-04T05:36:11.457Z,98873.13
2023-03-04T05:41:15.392Z,98873.97
2023-03-04T05:43:44.813Z,98878.31
2023-03-04T05:46:16.160Z,98879.34
2023-03-04T05:48:42.879Z,98877.31
2023-03-04T05:51:09.661Z,98883.00
2023-03-04T05:53:37.033Z,98876.31
2023-03-04T05:56:11.303Z,98882.56
2023-03-04T05:58:37.848Z,98883.38
2023-03-04T06:01:05.120Z,98876.06
2023-03-04T06:03:31.765Z,98881.22
2023-03-04T06:05:59.157Z,98886.94
2023-03-04T06:08:26.132Z,98883.06
2023-03-04T06:10:54.620Z,98886.00
2023-03-04T06:13:21.631Z,98890.06
2023-03-04T06:15:53.280Z,98883.91
2023-03-04T06:18:19.906Z,98883.97
2023-03-04T06:20:46.439Z,98889.91
2023-03-04T06:23:12.982Z,98885.06
2023-03-04T06:25:39.523Z,98900.69
2023-03-04T06:28:06.086Z,98898.28
2023-03-04T06:33:03.977Z,98909.22
2023-03-04T06:35:30.521Z,98904.56
2023-03-04T06:37:57.058Z,98911.06
2023-03-04T06:40:23.588Z,98914.59
2023-03-04T06:42:50.097Z,98919.13
2023-03-04T06:45:16.675Z,98931.25
2023-03-04T06:47:45.118Z,98928.53
2023-03-04T06:52:51.684Z,98925.41
2023-03-04T06:55:18.279Z,98922.63
2023-03-04T06:57:46.425Z,98927.75
2023-03-04T07:00:15.479Z,98936.06
2023-03-04T07:02:42.226Z,98930.91
2023-03-04T07:05:11.235Z,98936.75
2023-03-04T07:07:38.584Z,98932.63
2023-03-04T07:10:05.698Z,98938.03
2023-03-04T07:12:32.840Z,98932.84
2023-03-04T07:14:59.513Z,98944.41
2023-03-04T07:17:26.178Z,98945.94
2023-03-04T07:19:52.761Z,98943.31
2023-03-04T07:22:19.304Z,98945.59
2023-03-04T07:24:45.877Z,98957.47
2023-03-04T07:27:12.614Z,98956.91
2023-03-04T07:29:39.129Z,98954.06
2023-03-04T07:32:09.839Z,98963.78
2023-03-04T07:34:36.441Z,98955.25
2023-03-04T07:37:03.075Z,98964.44
2023-03-04T07:42:07.876Z,98971.59
2023-03-04T07:44:34.373Z,98970.91
2023-03-04T07:47:00.920Z,98972.03
2023-03-04T07:49:27.488Z,98974.28
2023-03-04T07:51:54.014Z,98981.16
2023-03-04T07:54:20.549Z,98984.25
2023-03-04T07:56:47.229Z,98984.13
2023-03-04T07:59:13.858Z,98978.50
2023-03-04T08:01:40.385Z,98980.59
2023-03-04T08:04:07.654Z,98978.50
2023-03-04T08:06:34.668Z,98982.19
2023-03-04T08:09:07.236Z,98982.19
2023-03-04T08:11:36.611Z,98985.81
2023-03-04T08:14:03.696Z,98996.00
2023-03-04T08:16:30.716Z,98998.19
2023-03-04T08:18:59.526Z,98999.19
2023-03-04T08:21:27.553Z,98997.66
2023-03-04T08:26:30.042Z,98996.03
2023-03-04T08:28:57.756Z,98998.09
2023-03-04T08:31:25.149Z,98992.25
2023-03-04T08:36:24.341Z,98992.47
2023-03-04T08:38:51.038Z,98997.25
2023-03-04T08:41:17.814Z,98997.78
2023-03-04T08:43:44.400Z,99000.25
2023-03-04T08:48:42.175Z,98994.50
2023-03-04T08:51:13.807Z,98992.38
2023-03-04T08:53:41.133Z,98994.94
2023-03-04T08:56:08.337Z,98997.41
2023-03-04T08:58:35.233Z,99000.41
2023-03-04T09:01:02.341Z,98999.59
2023-03-04T09:03:28.975Z,99003.09
2023-03-04T09:05:55.914Z,99004.03
2023-03-04T09:08:22.645Z,99010.72
2023-03-04T09:10:53.304Z,99007.16
2023-03-04T09:13:20.052Z,99007.78
2023-03-04T09:15:48.837Z,99010.41
2023-03-04T09:18:16.611Z,99009.41
2023-03-04T09:20:43.553Z,99002.31
2023-03-04T09:23:10.821Z,98997.75
2023-03-04T09:25:38.452Z,99003.22
2023-03-04T09:28:05.947Z,99000.53
2023-03-04T09:30:32.878Z,99000.59
2023-03-04T09:32:59.574Z,98999.84
2023-03-04T09:35:26.190Z,99005.09
2023-03-04T09:37:53.073Z,99008.59
2023-03-04T09:40:22.553Z,99004.81
2023-03-04T09:42:52.902Z,99001.34
2023-03-04T09:45:23.617Z,98999.63
2023-03-04T09:47:54.580Z,98999.53
2023-03-04T09:50:22.308Z,99003.53
2023-03-04T09:52:54.586Z,99006.25
2023-03-04T09:58:39.737Z,99008.16
2023-03-04T10:01:26.735Z,99013.63
2023-03-04T10:03:59.423Z,99013.16
2023-03-04T10:06:37.533Z,99009.19
2023-03-04T10:09:27.887Z,99008.66
2023-03-04T10:11:55.705Z,99006.56
2023-03-04T10:14:29.709Z,98988.97
2023-03-04T10:17:14.291Z,98999.38
2023-03-04T10:19:52.874Z,98997.94
2023-03-04T10:22:26.931Z,98995.03
2023-03-04T10:24:56.640Z,98983.84
2023-03-04T10:27:24.861Z,98996.91
2023-03-04T10:29:51.674Z,98988.56
2023-03-04T10:32:20.201Z,98986.34
2023-03-04T10:34:46.927Z,98990.19
2023-03-04T10:37:13.777Z,98981.78
2023-03-04T10:39:49.400Z,98989.31
2023-03-04T10:42:16.006Z,98988.78
2023-03-04T10:44:44.040Z,98980.88
2023-03-04T10:47:14.620Z,98978.56
2023-03-04T10:49:53.518Z,98978.50
2023-03-04T10:52:28.733Z,98979.56
2023-03-04T10:55:06.068Z,98974.97
2023-03-04T10:57:41.782Z,98972.94
2023-03-04T11:00:17.207Z,98974.75
2023-03-04T11:02:45.492Z,98967.25
2023-03-04T11:05:14.859Z,98967.56
2023-03-04T11:07:54.982Z,98961.78
2023-03-04T11:10:30.168Z,98955.94
2023-03-04T11:13:02.460Z,98957.41
2023-03-04T11:15:31.399Z,98959.44
2023-03-04T11:18:04.669Z,98953.41
2023-03-04T11:20:42.018Z,98956.56
2023-03-04T11:23:16.674Z,98946.38
2023-03-04T11:25:55.222Z,98955.41
2023-03-04T11:29:00.945Z,98950.31
2023-03-04T11:31:54.869Z,98951.00
2023-03-04T11:34:54.495Z,98947.88
2023-03-04T11:37:33.018Z,98944.28
2023-03-04T11:40:05.277Z,98939.31
2023-03-04T11:42:34.525Z,98937.91
2023-03-04T11:48:01.730Z,98939.63
2023-03-04T11:53:28.982Z,98936.25
2023-03-04T11:56:04.463Z,98931.25
2023-03-04T11:58:49.995Z,98935.50
2023-03-04T12:01:32.712Z,98929.59
2023-03-04T12:04:24.769Z,98929.59
2023-03-04T12:07:09.395Z,98920.81
2023-03-04T12:10:08.123Z,98911.06
2023-03-04T12:13:09.914Z,98911.84
2023-03-04T12:15:39.513Z,98905.47
2023-03-04T12:18:23.999Z,98904.63
2023-03-04T12:20:53.172Z,98889.78
2023-03-04T12:23:28.961Z,98892.72
2023-03-04T12:26:22.239Z,98895.75
2023-03-04T12:29:07.526Z,98894.81
2023-03-04T12:31:37.168Z,98887.19
2023-03-04T12:34:19.372Z,98882.88
2023-03-04T12:36:51.776Z,98882.53
2023-03-04T12:39:28.217Z,98880.47
2023-03-04T12:42:37.285Z,98875.25
2023-03-04T12:45:20.509Z,98869.09
2023-03-04T12:48:01.732Z,98860.03
2023-03-04T12:50:59.542Z,98858.59
2023-03-04T12:53:51.575Z,98859.19
2023-03-04T12:58:59.717Z,98857.47
2023-03-04T13:01:37.012Z,98852.31
2023-03-04T13:04:06.553Z,98855.44
2023-03-04T13:06:53.472Z,98854.38
2023-03-04T13:09:33.985Z,98850.94
2023-03-04T13:12:16.260Z,98845.91
2023-03-04T13:15:08.500Z,98850.75
2023-03-04T13:17:50.261Z,98851.75
2023-03-04T13:20:40.640Z,98850.91
2023-03-04T13:23:26.371Z,98848.06
2023-03-04T13:25:55.483Z,98846.28
2023-03-04T13:28:28.372Z,98853.47
2023-03-04T13:30:59.583Z,98849.13
2023-03-04T13:33:26.098Z,98846.47
2023-03-04T13:36:04.445Z,98851.16
2023-03-04T13:38:31.255Z,98847.41
2023-03-04T13:41:25.246Z,98855.78
2023-03-04T13:46:27.706Z,98854.09
2023-03-04T13:51:33.283Z,98854.28
2023-03-04T13:53:59.790Z,98850.91
2023-03-04T13:56:50.413Z,98849.38
2023-03-04T13:59:32.445Z,98851.19
2023-03-04T14:02:02.082Z,98847.66
2023-03-04T14:04:35.324Z,98849.13
2023-03-04T14:07:23.958Z,98853.44
2023-03-04T14:10:12.688Z,98847.41
2023-03-04T14:12:47.831Z,98849.28
2023-03-04T14:15:14.309Z,98847.34
2023-03-04T14:17:46.378Z,98838.16
2023-03-04T14:20:26.759Z,98837.53
2023-03-04T14:22:54.253Z,98834.66
2023-03-04T14:25:30.932Z,98830.91
2023-03-04T14:28:12.637Z,98826.88
2023-03-04T14:30:43.702Z,98830.53
2023-03-04T14:36:01.572Z,98830.19
2023-03-04T14:41:19.669Z,98822.38
2023-03-04T14:44:23.859Z,98827.44
2023-03-04T14:47:06.969Z,98820.78
2023-03-04T14:49:37.115Z,98821.41
2023-03-04T14:52:04.156Z,98815.44
2023-03-04T14:54:33.418Z,98804.44
2023-03-04T14:57:02.082Z,98812.38
2023-03-04T14:59:33.570Z,98807.72
2023-03-04T15:02:24.072Z,98805.00
2023-03-04T15:04:53.506Z,98804.22
2023-03-04T15:07:33.437Z,98808.81
2023-03-04T15:10:02.262Z,98803.34
2023-03-04T15:12:31.939Z,98807.28
2023-03-04T15:15:03.850Z,98809.38
2023-03-04T15:17:39.344Z,98809.50
2023-03-04T15:22:57.339Z,98801.88
2023-03-04T15:25:24.178Z,98808.03
2023-03-04T15:27:51.528Z,98802.38
2023-03-04T15:32:57.992Z,98806.00
2023-03-04T15:35:27.627Z,98806.00
2023-03-04T15:37:56.354Z,98798.38
2023-03-04T15:40:33.240Z,98802.50
2023-03-04T15:43:02.071Z,98803.56
2023-03-04T15:45:37.100Z,98795.94
2023-03-04T15:50:43.898Z,98797.91
2023-03-04T15:53:25.764Z,98794.72
2023-03-04T15:55:53.002Z,98800.81
2023-03-04T15:58:20.072Z,98797.94
2023-03-04T16:00:46.739Z,98795.13
2023-03-04T16:03:16.759Z,98802.25
2023-03-04T16:05:44.821Z,98796.88
2023-03-04T16:08:14.550Z,98791.97
2023-03-04T16:10:43.855Z,98788.72
2023-03-04T16:13:15.983Z,98791.47
2023-03-04T16:15:43.505Z,98795.16
2023-03-04T16:18:14.527Z,98793.31
2023-03-04T16:20:47.474Z,98790.53
2023-03-04T16:23:18.825Z,98795.34
2023-03-04T16:25:47.286Z,98799.53
2023-03-04T16:28:13.941Z,98797.22
2023-03-04T16:30:41.052Z,98797.84
2023-03-04T16:33:08.064Z,98795.31
2023-03-04T16:35:36.774Z,98794.72
2023-03-04T16:38:04.549Z,98789.91
2023-03-04T16:40:31.440Z,98798.50
2023-03-04T16:42:58.085Z,98794.56
2023-03-04T16:45:27.176Z,98799.31
2023-03-04T16:47:54.256Z,98793.91
2023-03-04T16:50:27.119Z,98800.44
2023-03-04T16:52:55.135Z,98800.69
2023-03-04T16:55:25.706Z,98800.44
2023-03-04T16:57:53.930Z,98800.94
2023-03-04T17:00:22.799Z,98799.28
2023-03-04T17:03:00.532Z,98802.75
2023-03-04T17:08:04.283Z,98803.06
2023-03-04T17:10:30.902Z,98801.47
2023-03-04T17:12:57.548Z,98803.00
2023-03-04T17:15:24.238Z,98801.09
2023-03-04T17:17:52.822Z,98798.72
2023-03-04T17:20:19.936Z,98800.94
2023-03-04T17:22:46.506Z,98801.44
2023-03-04T17:25:14.232Z,98804.47
2023-03-04T17:27:41.833Z,98803.81
2023-03-04T17:30:11.555Z,98806.63
2023-03-04T17:35:11.449Z,98813.28
2023-03-04T17:37:38.298Z,98817.88
2023-03-04T17:40:09.182Z,98818.78
2023-03-04T17:45:07.835Z,98820.81
2023-03-04T17:47:36.183Z,98810.16
2023-03-04T17:50:04.327Z,98804.75
2023-03-04T17:55:11.265Z,98805.47
2023-03-04T17:57:38.324Z,98807.28
2023-03-04T18:00:05.804Z,98809.63
2023-03-04T18:02:32.383Z,98803.88
2023-03-04T18:04:58.999Z,98813.19
2023-03-04T18:07:25.516Z,98811.09
2023-03-04T18:09:52.310Z,98811.41
2023-03-04T18:12:18.932Z,98807.16
2023-03-04T18:14:45.625Z,98813.34
2023-03-04T18:17:12.146Z,98808.59
2023-03-04T18:22:17.399Z,98805.22
2023-03-04T18:24:43.977Z,98813.19
2023-03-04T18:27:10.517Z,98799.59
2023-03-04T18:29:37.325Z,98801.84
2023-03-04T18:32:04.118Z,98800.56
2023-03-04T18:34:30.701Z,98790.72
2023-03-04T18:39:28.538Z,98798.06
2023-03-04T18:41:55.100Z,98793.16
2023-03-04T18:44:21.713Z,98793.31
2023-03-04T18:46:52.851Z,98793.31
2023-03-04T18:49:21.004Z,98790.78
2023-03-04T18:51:47.531Z,98790.78
2023-03-04T18:54:14.159Z,98781.38
2023-03-04T18:56:47.414Z,98783.91
2023-03-04T18:59:28.042Z,98782.31
2023-03-04T19:01:54.943Z,98789.13
2023-03-04T19:06:56.801Z,98785.44
2023-03-04T19:09:23.325Z,98783.38
2023-03-04T19:11:50.004Z,98779.47
2023-03-04T19:14:16.522Z,98782.47
2023-03-04T19:16:43.170Z,98785.91
2023-03-04T19:19:09.697Z,98781.66
2023-03-04T19:21:41.975Z,98777.31
2023-03-04T19:26:40.277Z,98770.03
2023-03-04T19:29:07.425Z,98769.91
2023-03-04T19:31:34.149Z,98765.91
2023-03-04T19:34:00.753Z,98770.50
2023-03-04T19:36:27.421Z,98769.53
2023-03-04T19:38:55.544Z,98772.34
2023-03-04T19:41:22.721Z,98770.25
2023-03-04T19:43:49.711Z,98768.50
2023-03-04T19:46:16.469Z,98774.53
2023-03-04T19:51:22.084Z,98766.00
2023-03-04T19:53:50.921Z,98764.50
2023-03-04T19:56:17.929Z,98769.25
2023-03-04T19:58:44.568Z,98769.69
2023-03-04T20:01:28.316Z,98770.25
2023-03-04T20:04:00.531Z,98769.69
2023-03-04T20:06:27.317Z,98771.94
2023-03-04T20:08:57.678Z,98760.81
2023-03-04T20:11:25.166Z,98764.75
2023-03-04T20:13:51.668Z,98769.38
2023-03-04T20:16:18.422Z,98768.22
2023-03-04T20:18:44.971Z,98770.03
2023-03-04T20:21:11.893Z,98765.28
2023-03-04T20:23:38.798Z,98765.53
2023-03-04T20:26:05.750Z,98769.06
2023-03-04T20:28:33.078Z,98764.22
2023-03-04T20:31:15.844Z,98760.13
2023-03-04T20:33:43.669Z,98756.72
2023-03-04T20:38:41.587Z,98763.66
2023-03-04T20:41:08.640Z,98756.50
2023-03-04T20:43:35.203Z,98759.31
2023-03-04T20:46:28.234Z,98755.84
2023-03-04T20:48:59.243Z,98749.31
2023-03-04T20:51:26.474Z,98746.31
2023-03-04T20:53:55.382Z,98744.09
2023-03-04T20:56:22.662Z,98738.19
2023-03-04T20:58:49.891Z,98736.75
2023-03-04T21:01:18.238Z,98737.56
2023-03-04T21:03:45.611Z,98737.28
2023-03-04T21:06:15.893Z,98743.13
2023-03-04T21:08:43.733Z,98743.38
2023-03-04T21:11:11.609Z,98742.19
2023-03-04T21:13:41.134Z,98742.72
2023-03-04T21:16:12.951Z,98741.16
2023-03-04T21:18:40.373Z,98737.56
2023-03-04T21:21:28.799Z,98737.56
2023-03-04T21:23:56.940Z,98742.16
2023-03-04T21:28:55.525Z,98734.06
2023-03-04T21:31:28.885Z,98736.84
2023-03-04T21:33:58.708Z,98731.31
2023-03-04T21:36:25.224Z,98731.97
2023-03-04T21:38:53.149Z,98724.22
2023-03-04T21:43:53.958Z,98722.56
2023-03-04T21:46:20.536Z,98720.22
2023-03-04T21:48:48.336Z,98724.31
2023-03-04T21:51:16.477Z,98719.72
2023-03-04T21:53:43.583Z,98712.78
2023-03-04T21:56:12.501Z,98718.38
2023-03-04T21:58:42.230Z,98713.72
2023-03-04T22:01:20.578Z,98708.97
2023-03-04T22:03:51.654Z,98705.38
2023-03-04T22:06:22.262Z,98702.81
2023-03-04T22:08:49.738Z,98700.41
2023-03-04T22:11:17.140Z,98693.59
2023-03-04T22:13:43.780Z,98696.75
2023-03-04T22:16:10.603Z,98700.63
2023-03-04T22:18:39.851Z,98694.09
2023-03-04T22:21:14.554Z,98690.25
2023-03-04T22:23:41.614Z,98689.16
2023-03-04T22:26:19.765Z,98684.88
2023-03-04T22:28:46.984Z,98696.31
2023-03-04T22:31:18.677Z,98689.94
2023-03-04T22:33:45.888Z,98681.19
2023-03-04T22:36:13.360Z,98680.56
2023-03-04T22:38:40.937Z,98674.38
2023-03-04T22:41:18.098Z,98674.81
2023-03-04T22:43:45.563Z,98679.56
2023-03-04T22:46:32.266Z,98683.97
2023-03-04T22:49:01.730Z,98675.72
2023-03-04T22:51:29.066Z,98674.47
2023-03-04T22:53:56.075Z,98679.78
2023-03-04T22:56:23.101Z,98670.56
2023-03-04T22:58:49.907Z,98671.97
2023-03-04T23:03:56.095Z,98662.94
2023-03-04T23:06:25.489Z,98662.63
2023-03-04T23:08:52.573Z,98674.06
2023-03-04T23:11:22.882Z,98670.56
2023-03-04T23:13:50.644Z,98664.22
2023-03-04T23:16:19.042Z,98658.66
2023-03-04T23:18:47.352Z,98657.66
2023-03-04T23:21:20.607Z,98650.38
2023-03-04T23:23:47.748Z,98655.91
2023-03-04T23:26:17.338Z,98654.03
2023-03-04T23:28:44.070Z,98645.94
2023-03-04T23:31:10.828Z,98652.91
2023-03-04T23:33:37.398Z,98649.56
2023-03-04T23:36:04.211Z,98652.91
2023-03-04T23:38:30.766Z,98654.31
2023-03-04T23:40:57.543Z,98653.41
2023-03-04T23:43:24.039Z,98657.47
2023-03-04T23:45:50.599Z,98651.50
2023-03-04T23:48:17.153Z,98650.72
2023-03-04T23:50:50.930Z,98644.50
2023-03-04T23:53:19.176Z,98644.81
2023-03-04T23:55:46.253Z,98638.28
2023-03-04T23:58:12.924Z,98640.69
